createdAt,value
2019-03-30T00:02:27.774Z,15.50
2019-03-30T00:04:55.573Z,15.60
2019-03-30T00:07:24.012Z,15.50
2019-03-30T00:09:51.983Z,15.50
2019-03-30T00:12:22.942Z,17.00
2019-03-30T00:14:49.648Z,15.40
2019-03-30T00:19:51.326Z,17.50
2019-03-30T00:22:20.469Z,15.30
2019-03-30T00:24:48.440Z,15.30
2019-03-30T00:27:16.446Z,15.30
2019-03-30T00:29:44.430Z,15.30
2019-03-30T00:32:12.343Z,15.30
2019-03-30T00:34:40.431Z,15.20
2019-03-30T00:37:08.528Z,15.10
2019-03-30T00:39:36.537Z,15.10
2019-03-30T00:42:04.412Z,15.10
2019-03-30T00:44:32.322Z,15.00
2019-03-30T00:47:00.156Z,14.90
2019-03-30T00:49:28.084Z,15.00
2019-03-30T00:51:56.109Z,14.90
2019-03-30T00:54:24.002Z,14.90
2019-03-30T00:56:52.351Z,14.90
2019-03-30T00:59:20.289Z,14.80
2019-03-30T01:01:48.189Z,14.80
2019-03-30T01:04:16.134Z,14.80
2019-03-30T01:06:44.009Z,14.70
2019-03-30T01:09:12.100Z,14.70
2019-03-30T01:11:40.066Z,14.70
2019-03-30T01:14:08.241Z,14.70
2019-03-30T01:16:36.305Z,14.70
2019-03-30T01:19:04.285Z,14.60
2019-03-30T01:21:32.235Z,14.60
2019-03-30T01:24:00.279Z,17.00
2019-03-30T01:26:28.318Z,14.60
2019-03-30T01:28:56.258Z,14.50
2019-03-30T01:31:24.403Z,14.50
2019-03-30T01:33:52.438Z,14.50
2019-03-30T01:36:20.403Z,14.50
2019-03-30T01:38:48.316Z,14.40
2019-03-30T01:41:16.243Z,14.40
2019-03-30T01:43:44.146Z,14.40
2019-03-30T01:46:12.020Z,14.40
2019-03-30T01:51:07.557Z,14.30
2019-03-30T01:53:35.762Z,14.30
2019-03-30T01:56:03.622Z,14.30
2019-03-30T01:58:31.620Z,14.30
2019-03-30T02:00:59.470Z,14.20
2019-03-30T02:03:27.479Z,14.20
2019-03-30T02:05:55.455Z,14.10
2019-03-30T02:08:23.320Z,14.10
2019-03-30T02:10:51.189Z,14.10
2019-03-30T02:13:19.051Z,14.00
2019-03-30T02:15:46.907Z,15.20
2019-03-30T02:18:14.820Z,14.00
2019-03-30T02:20:44.014Z,13.90
2019-03-30T02:23:12.060Z,14.10
2019-03-30T02:25:40.066Z,13.90
2019-03-30T02:28:08.177Z,13.90
2019-03-30T02:30:36.352Z,13.80
2019-03-30T02:33:04.475Z,13.80
2019-03-30T02:35:32.351Z,13.70
2019-03-30T02:38:00.382Z,13.70
2019-03-30T02:40:28.294Z,13.80
2019-03-30T02:42:56.253Z,13.50
2019-03-30T02:45:24.186Z,13.50
2019-03-30T02:47:52.096Z,13.50
2019-03-30T02:50:20.053Z,13.40
2019-03-30T02:52:47.792Z,13.40
2019-03-30T02:55:15.719Z,13.40
2019-03-30T02:57:43.464Z,13.30
2019-03-30T03:00:13.589Z,13.30
2019-03-30T03:02:41.444Z,13.30
2019-03-30T03:05:09.682Z,13.20
2019-03-30T03:07:37.574Z,13.20
2019-03-30T03:10:05.966Z,13.20
2019-03-30T03:12:33.912Z,13.20
2019-03-30T03:15:01.951Z,16.00
2019-03-30T03:17:29.922Z,13.70
2019-03-30T03:19:57.895Z,13.10
2019-03-30T03:22:25.977Z,13.20
2019-03-30T03:24:54.144Z,14.00
2019-03-30T03:27:22.111Z,13.10
2019-03-30T03:29:50.118Z,15.10
2019-03-30T03:32:18.171Z,13.40
2019-03-30T03:34:45.966Z,13.10
2019-03-30T03:37:13.798Z,14.10
2019-03-30T03:39:41.645Z,13.10
2019-03-30T03:42:09.593Z,15.00
2019-03-30T03:44:37.487Z,13.10
2019-03-30T03:47:05.346Z,13.10
2019-03-30T03:49:33.319Z,13.10
2019-03-30T03:52:01.418Z,14.90
2019-03-30T03:54:29.947Z,13.10
2019-03-30T03:56:57.875Z,13.10
2019-03-30T03:59:26.730Z,14.90
2019-03-30T04:01:55.686Z,13.10
2019-03-30T04:04:26.141Z,15.70
2019-03-30T04:06:58.150Z,13.30
2019-03-30T04:09:29.697Z,13.10
2019-03-30T04:11:58.907Z,13.10
2019-03-30T04:14:26.746Z,13.10
2019-03-30T04:16:54.617Z,13.10
2019-03-30T04:19:22.442Z,13.10
2019-03-30T04:21:50.330Z,13.10
2019-03-30T04:24:18.301Z,14.10
2019-03-30T04:26:46.225Z,13.00
2019-03-30T04:29:14.230Z,13.50
2019-03-30T04:31:42.203Z,13.00
2019-03-30T04:34:10.147Z,13.00
2019-03-30T04:36:38.056Z,13.10
2019-03-30T04:39:06.065Z,13.00
2019-03-30T04:41:34.017Z,13.00
2019-03-30T04:44:01.953Z,13.80
2019-03-30T04:46:29.835Z,12.90
2019-03-30T04:48:57.767Z,12.90
2019-03-30T04:51:26.431Z,12.90
2019-03-30T04:53:54.246Z,14.10
2019-03-30T04:56:22.336Z,12.80
2019-03-30T04:58:50.375Z,14.50
2019-03-30T05:01:18.331Z,12.80
2019-03-30T05:03:46.450Z,16.00
2019-03-30T05:06:14.617Z,12.80
2019-03-30T05:08:42.676Z,12.80
2019-03-30T05:11:10.683Z,12.80
2019-03-30T05:13:38.695Z,13.50
2019-03-30T05:16:06.788Z,12.80
2019-03-30T05:18:34.733Z,12.80
2019-03-30T05:21:02.595Z,14.40
2019-03-30T05:23:30.495Z,14.20
2019-03-30T05:25:58.462Z,14.50
2019-03-30T05:28:26.404Z,12.80
2019-03-30T05:30:54.383Z,12.80
2019-03-30T05:33:22.406Z,14.60
2019-03-30T05:35:50.378Z,12.80
2019-03-30T05:38:18.355Z,13.10
2019-03-30T05:40:46.259Z,12.90
2019-03-30T05:43:14.292Z,12.80
2019-03-30T05:45:42.182Z,12.80
2019-03-30T05:48:10.068Z,12.80
2019-03-30T05:50:37.993Z,13.40
2019-03-30T05:53:06.026Z,12.90
2019-03-30T05:55:33.885Z,14.40
2019-03-30T05:58:01.716Z,12.90
2019-03-30T06:00:29.586Z,12.90
2019-03-30T06:02:57.568Z,12.90
2019-03-30T06:05:25.507Z,12.90
2019-03-30T06:07:53.469Z,12.90
2019-03-30T06:10:21.361Z,13.00
2019-03-30T06:12:49.342Z,12.90
2019-03-30T06:15:17.372Z,13.10
2019-03-30T06:17:45.250Z,13.00
2019-03-30T06:20:13.242Z,13.00
2019-03-30T06:22:41.216Z,12.90
2019-03-30T06:25:09.261Z,13.70
2019-03-30T06:27:37.197Z,10.40
2019-03-30T06:30:21.761Z,14.50
2019-03-30T06:32:49.666Z,13.00
2019-03-30T06:35:17.658Z,13.10
2019-03-30T06:37:45.599Z,13.00
2019-03-30T06:40:13.646Z,13.10
2019-03-30T06:42:41.516Z,13.10
2019-03-30T06:45:09.421Z,13.10
2019-03-30T06:47:37.278Z,13.20
2019-03-30T06:50:05.566Z,13.20
2019-03-30T06:52:33.525Z,13.30
2019-03-30T06:55:01.492Z,13.70
2019-03-30T06:57:29.441Z,13.30
2019-03-30T06:59:57.325Z,13.50
2019-03-30T07:02:25.719Z,13.40
2019-03-30T07:04:53.641Z,13.50
2019-03-30T07:07:24.987Z,13.50
2019-03-30T07:09:53.032Z,13.50
2019-03-30T07:12:22.929Z,13.60
2019-03-30T07:14:52.784Z,13.60
2019-03-30T07:17:21.372Z,13.60
2019-03-30T07:19:52.821Z,13.70
2019-03-30T07:22:35.373Z,13.80
2019-03-30T07:25:03.311Z,13.90
2019-03-30T07:27:31.309Z,13.90
2019-03-30T07:29:59.122Z,14.10
2019-03-30T07:32:27.025Z,14.00
2019-03-30T07:34:55.012Z,14.00
2019-03-30T07:37:23.030Z,14.60
2019-03-30T07:39:51.147Z,14.20
2019-03-30T07:42:19.225Z,14.30
2019-03-30T07:44:47.188Z,14.60
2019-03-30T07:47:16.774Z,14.30
2019-03-30T07:49:47.808Z,14.60
2019-03-30T07:52:15.886Z,14.60
2019-03-30T07:54:43.807Z,14.70
2019-03-30T07:57:17.305Z,14.90
2019-03-30T07:59:41.483Z,16.10
2019-03-30T08:02:09.447Z,15.30
2019-03-30T08:04:37.400Z,16.70
2019-03-30T08:07:05.411Z,15.40
2019-03-30T08:09:33.396Z,15.50
2019-03-30T08:12:02.165Z,15.60
2019-03-30T08:14:30.122Z,15.70
2019-03-30T08:16:58.007Z,15.90
2019-03-30T08:19:25.964Z,16.90
2019-03-30T08:21:53.914Z,16.00
2019-03-30T08:24:21.903Z,16.10
2019-03-30T08:26:49.855Z,16.20
2019-03-30T08:29:17.699Z,16.30
2019-03-30T08:31:49.923Z,16.50
2019-03-30T08:34:16.935Z,16.60
2019-03-30T08:36:45.075Z,16.80
2019-03-30T08:39:12.941Z,16.80
2019-03-30T08:41:40.913Z,17.10
2019-03-30T08:44:08.923Z,17.10
2019-03-30T08:46:37.070Z,17.20
2019-03-30T08:49:05.706Z,17.40
2019-03-30T08:51:33.615Z,17.50
2019-03-30T08:54:01.589Z,17.90
2019-03-30T08:56:29.555Z,17.80
2019-03-30T08:58:57.575Z,17.90
2019-03-30T09:01:25.599Z,18.10
2019-03-30T09:03:53.608Z,18.30
2019-03-30T09:06:21.649Z,18.60
2019-03-30T09:08:49.532Z,17.90
2019-03-30T09:11:17.462Z,19.20
2019-03-30T09:13:45.361Z,19.70
2019-03-30T09:16:25.108Z,20.20
2019-03-30T09:18:53.039Z,20.90
2019-03-30T09:21:21.151Z,21.60
2019-03-30T09:23:49.068Z,22.30
2019-03-30T09:26:17.296Z,23.00
2019-03-30T09:28:45.300Z,23.70
2019-03-30T09:31:13.302Z,24.40
2019-03-30T09:33:41.347Z,25.00
2019-03-30T09:36:09.328Z,25.80
2019-03-30T09:38:37.305Z,26.40
2019-03-30T09:41:05.234Z,27.10
2019-03-30T09:43:32.987Z,27.70
2019-03-30T09:46:01.639Z,28.40
2019-03-30T09:48:29.586Z,29.00
2019-03-30T09:50:57.531Z,29.60
2019-03-30T09:53:25.473Z,30.10
2019-03-30T09:55:53.364Z,30.70
2019-03-30T09:58:21.412Z,31.20
2019-03-30T10:00:49.423Z,31.70
2019-03-30T10:03:17.539Z,32.20
2019-03-30T10:05:45.567Z,32.70
2019-03-30T10:08:13.527Z,33.10
2019-03-30T10:10:41.388Z,33.50
2019-03-30T10:13:09.367Z,33.90
2019-03-30T10:15:37.329Z,34.20
2019-03-30T10:18:05.274Z,34.60
2019-03-30T10:20:33.283Z,34.90
2019-03-30T10:23:01.497Z,35.10
2019-03-30T10:25:29.455Z,35.40
2019-03-30T10:27:57.516Z,35.70
2019-03-30T10:30:25.463Z,35.90
2019-03-30T10:32:53.460Z,36.20
2019-03-30T10:35:21.276Z,36.50
2019-03-30T10:37:49.155Z,36.70
2019-03-30T10:40:20.623Z,36.90
2019-03-30T10:42:46.986Z,37.00
2019-03-30T10:45:14.970Z,37.20
2019-03-30T10:47:54.090Z,37.30
2019-03-30T10:50:21.977Z,37.50
2019-03-30T10:52:50.272Z,37.60
2019-03-30T10:55:18.123Z,37.70
2019-03-30T10:57:46.072Z,37.80
2019-03-30T11:00:26.439Z,37.90
2019-03-30T11:02:57.202Z,41.00
2019-03-30T11:05:25.070Z,38.10
2019-03-30T11:07:53.090Z,37.90
2019-03-30T11:10:22.700Z,37.90
2019-03-30T11:12:50.696Z,37.80
2019-03-30T11:15:21.762Z,37.40
2019-03-30T11:17:49.880Z,36.90
2019-03-30T11:20:17.865Z,36.40
2019-03-30T11:22:45.829Z,35.70
2019-03-30T11:25:13.783Z,35.10
2019-03-30T11:27:41.859Z,34.50
2019-03-30T11:30:09.806Z,33.70
2019-03-30T11:32:38.853Z,33.10
2019-03-30T11:35:07.543Z,32.50
2019-03-30T11:37:35.526Z,35.10
2019-03-30T11:40:03.852Z,31.40
2019-03-30T11:42:31.850Z,30.90
2019-03-30T11:44:59.818Z,30.50
2019-03-30T11:47:27.790Z,30.00
2019-03-30T11:49:55.862Z,29.70
2019-03-30T11:52:23.870Z,29.30
2019-03-30T11:54:51.790Z,29.00
2019-03-30T11:57:19.911Z,28.70
2019-03-30T11:59:47.943Z,28.50
2019-03-30T12:02:27.229Z,28.30
2019-03-30T12:04:54.145Z,29.70
2019-03-30T12:07:22.215Z,27.90
2019-03-30T12:09:59.531Z,27.80
2019-03-30T12:12:28.132Z,27.60
2019-03-30T12:14:56.125Z,27.50
2019-03-30T12:17:24.126Z,27.30
2019-03-30T12:19:52.137Z,27.30
2019-03-30T12:22:20.043Z,27.20
2019-03-30T12:24:47.896Z,27.10
2019-03-30T12:27:15.786Z,27.10
2019-03-30T12:29:44.674Z,27.00
2019-03-30T12:32:12.755Z,27.00
2019-03-30T12:34:40.667Z,26.90
2019-03-30T12:37:08.647Z,26.90
2019-03-30T12:39:36.635Z,26.80
2019-03-30T12:42:04.743Z,26.80
2019-03-30T12:44:32.749Z,26.70
2019-03-30T12:47:00.769Z,26.60
2019-03-30T12:49:28.834Z,26.60
2019-03-30T12:51:56.787Z,26.60
2019-03-30T12:54:24.769Z,26.50
2019-03-30T12:56:55.491Z,26.50
2019-03-30T12:59:23.501Z,26.50
2019-03-30T13:01:51.515Z,26.40
2019-03-30T13:04:19.527Z,26.50
2019-03-30T13:06:47.560Z,26.50
2019-03-30T13:09:15.583Z,26.50
2019-03-30T13:11:43.546Z,26.50
2019-03-30T13:14:11.535Z,26.50
2019-03-30T13:16:39.550Z,26.50
2019-03-30T13:19:07.574Z,26.50
2019-03-30T13:21:35.521Z,26.50
2019-03-30T13:24:03.532Z,26.50
2019-03-30T13:26:31.463Z,26.50
2019-03-30T13:28:59.414Z,26.50
2019-03-30T13:31:27.461Z,26.50
2019-03-30T13:33:55.428Z,26.50
2019-03-30T13:36:39.408Z,26.50
2019-03-30T13:39:07.691Z,26.50
2019-03-30T13:41:35.666Z,26.50
2019-03-30T13:44:03.605Z,26.50
2019-03-30T13:46:31.614Z,26.50
2019-03-30T13:48:59.565Z,26.40
2019-03-30T13:51:27.545Z,26.40
2019-03-30T13:53:55.661Z,26.40
2019-03-30T13:56:23.573Z,26.40
2019-03-30T13:58:51.615Z,26.40
2019-03-30T14:01:40.237Z,26.40
2019-03-30T14:04:08.179Z,26.30
2019-03-30T14:06:36.001Z,26.40
2019-03-30T14:09:06.051Z,26.30
2019-03-30T14:11:34.036Z,26.30
2019-03-30T14:14:01.921Z,26.30
2019-03-30T14:16:29.793Z,26.30
2019-03-30T14:18:57.695Z,26.30
2019-03-30T14:21:25.571Z,26.30
2019-03-30T14:23:53.463Z,26.20
2019-03-30T14:26:31.143Z,26.30
2019-03-30T14:28:51.223Z,26.30
2019-03-30T14:31:19.233Z,26.30
2019-03-30T14:33:47.140Z,26.20
2019-03-30T14:36:15.442Z,23.70
2019-03-30T14:38:43.450Z,26.20
2019-03-30T14:41:12.311Z,26.20
2019-03-30T14:43:40.204Z,26.20
2019-03-30T14:46:08.060Z,26.20
2019-03-30T14:48:36.118Z,26.10
2019-03-30T14:51:04.086Z,26.20
2019-03-30T14:53:31.964Z,26.10
2019-03-30T14:55:59.915Z,26.10
2019-03-30T14:58:27.851Z,26.10
2019-03-30T15:00:55.772Z,26.10
2019-03-30T15:03:23.812Z,26.10
2019-03-30T15:05:51.768Z,26.10
2019-03-30T15:08:19.777Z,22.70
2019-03-30T15:10:47.678Z,26.10
2019-03-30T15:13:15.603Z,26.10
2019-03-30T15:15:43.469Z,26.10
2019-03-30T15:18:12.632Z,26.10
2019-03-30T15:20:41.528Z,26.10
2019-03-30T15:23:09.782Z,26.30
2019-03-30T15:25:38.979Z,26.40
2019-03-30T15:28:07.071Z,26.60
2019-03-30T15:30:35.048Z,26.80
2019-03-30T15:33:03.725Z,27.10
2019-03-30T15:35:31.797Z,27.30
2019-03-30T15:37:59.766Z,27.50
2019-03-30T15:40:28.295Z,26.10
2019-03-30T15:42:56.222Z,27.90
2019-03-30T15:45:24.385Z,28.10
2019-03-30T15:47:52.380Z,28.20
2019-03-30T15:50:20.392Z,28.30
2019-03-30T15:52:48.406Z,28.50
2019-03-30T15:55:16.367Z,28.60
2019-03-30T15:57:44.326Z,28.60
2019-03-30T16:00:14.824Z,28.60
2019-03-30T16:02:42.679Z,28.50
2019-03-30T16:05:10.649Z,28.40
2019-03-30T16:07:38.713Z,28.20
2019-03-30T16:10:07.035Z,28.10
2019-03-30T16:12:35.009Z,27.80
2019-03-30T16:15:03.360Z,27.60
2019-03-30T16:17:31.298Z,27.30
2019-03-30T16:19:59.252Z,27.10
2019-03-30T16:22:27.362Z,26.80
2019-03-30T16:24:55.278Z,26.60
2019-03-30T16:27:29.055Z,26.30
2019-03-30T16:29:52.983Z,26.10
2019-03-30T16:32:20.850Z,25.90
2019-03-30T16:34:48.976Z,25.70
2019-03-30T16:37:17.827Z,25.50
2019-03-30T16:39:45.819Z,25.30
2019-03-30T16:42:13.789Z,25.10
2019-03-30T16:44:41.847Z,25.00
2019-03-30T16:47:09.919Z,24.80
2019-03-30T16:49:38.007Z,24.70
2019-03-30T16:52:06.073Z,24.50
2019-03-30T16:54:34.458Z,24.40
2019-03-30T16:57:02.499Z,24.30
2019-03-30T16:59:30.391Z,24.20
2019-03-30T17:01:58.359Z,24.10
2019-03-30T17:04:29.385Z,24.00
2019-03-30T17:06:56.280Z,23.80
2019-03-30T17:09:24.410Z,23.70
2019-03-30T17:11:52.287Z,23.60
2019-03-30T17:14:20.262Z,23.60
2019-03-30T17:16:48.236Z,23.50
2019-03-30T17:19:16.575Z,23.40
2019-03-30T17:21:44.511Z,23.30
2019-03-30T17:24:12.652Z,23.30
2019-03-30T17:26:40.586Z,23.20
2019-03-30T17:29:08.626Z,23.00
2019-03-30T17:31:37.133Z,23.10
2019-03-30T17:34:10.397Z,23.00
2019-03-30T17:36:38.948Z,22.90
2019-03-30T17:39:08.329Z,22.90
2019-03-30T17:41:36.236Z,22.90
2019-03-30T17:44:04.024Z,22.70
2019-03-30T17:46:32.019Z,22.60
2019-03-30T17:49:00.527Z,22.60
2019-03-30T17:51:28.505Z,22.50
2019-03-30T17:53:56.447Z,22.40
2019-03-30T17:56:24.627Z,22.40
2019-03-30T17:58:52.586Z,22.30
2019-03-30T18:01:20.725Z,22.20
2019-03-30T18:03:52.800Z,22.10
2019-03-30T18:06:20.756Z,22.00
2019-03-30T18:08:48.745Z,22.00
2019-03-30T18:11:16.865Z,22.00
2019-03-30T18:13:44.830Z,21.90
2019-03-30T18:16:12.802Z,21.80
2019-03-30T18:18:40.924Z,21.80
2019-03-30T18:21:08.854Z,21.70
2019-03-30T18:23:36.736Z,21.70
2019-03-30T18:26:04.921Z,21.60
2019-03-30T18:28:32.959Z,21.50
2019-03-30T18:31:00.927Z,21.50
2019-03-30T18:33:29.069Z,21.40
2019-03-30T18:35:57.536Z,21.30
2019-03-30T18:38:25.509Z,21.30
2019-03-30T18:40:53.507Z,21.20
2019-03-30T18:43:21.637Z,21.20
2019-03-30T18:45:49.694Z,21.20
2019-03-30T18:48:18.065Z,21.10
2019-03-30T18:50:46.205Z,21.00
2019-03-30T18:53:15.216Z,21.00
2019-03-30T18:55:43.169Z,20.90
2019-03-30T18:58:11.137Z,20.90
2019-03-30T19:00:39.033Z,20.80
2019-03-30T19:03:07.081Z,20.80
2019-03-30T19:05:35.090Z,20.80
2019-03-30T19:08:03.057Z,20.70
2019-03-30T19:10:30.939Z,20.60
2019-03-30T19:12:58.852Z,20.60
2019-03-30T19:15:26.757Z,20.60
2019-03-30T19:17:54.822Z,20.50
2019-03-30T19:20:22.824Z,20.50
2019-03-30T19:22:50.859Z,20.40
2019-03-30T19:25:19.080Z,20.30
2019-03-30T19:27:47.055Z,20.30
2019-03-30T19:30:15.384Z,20.20
2019-03-30T19:32:43.422Z,20.20
2019-03-30T19:35:11.547Z,20.20
2019-03-30T19:37:39.639Z,20.20
2019-03-30T19:40:08.142Z,20.10
2019-03-30T19:42:36.299Z,20.00
2019-03-30T19:45:05.067Z,20.00
2019-03-30T19:47:32.902Z,19.90
2019-03-30T19:50:02.669Z,19.90
2019-03-30T19:52:39.775Z,19.90
2019-03-30T19:55:00.503Z,19.80
2019-03-30T19:57:31.355Z,20.00
2019-03-30T19:59:59.449Z,19.80
2019-03-30T20:02:27.401Z,19.70
2019-03-30T20:04:55.460Z,19.70
2019-03-30T20:07:23.495Z,19.60
2019-03-30T20:09:51.622Z,19.60
2019-03-30T20:12:19.717Z,19.60
2019-03-30T20:14:47.663Z,19.50
2019-03-30T20:17:15.607Z,19.50
2019-03-30T20:19:43.602Z,19.40
2019-03-30T20:22:11.595Z,19.40
2019-03-30T20:24:39.562Z,19.30
2019-03-30T20:27:07.442Z,19.40
2019-03-30T20:29:35.432Z,19.30
2019-03-30T20:32:03.387Z,19.20
2019-03-30T20:34:31.298Z,19.20
2019-03-30T20:36:59.182Z,19.20
2019-03-30T20:39:27.075Z,19.10
2019-03-30T20:41:55.082Z,19.10
2019-03-30T20:44:22.920Z,19.10
2019-03-30T20:46:51.070Z,19.00
2019-03-30T20:49:19.099Z,19.00
2019-03-30T20:51:47.099Z,18.90
2019-03-30T20:54:15.140Z,18.90
2019-03-30T20:56:43.037Z,18.90
2019-03-30T20:59:10.867Z,21.70
2019-03-30T21:01:38.853Z,18.80
2019-03-30T21:04:06.747Z,18.80
2019-03-30T21:06:37.405Z,18.70
2019-03-30T21:09:07.103Z,18.70
2019-03-30T21:11:35.336Z,18.70
2019-03-30T21:14:03.928Z,18.60
2019-03-30T21:16:32.497Z,18.40
2019-03-30T21:19:00.654Z,18.70
2019-03-30T21:21:28.773Z,18.50
2019-03-30T21:23:56.974Z,18.50
2019-03-30T21:26:28.399Z,18.50
2019-03-30T21:28:54.733Z,18.40
2019-03-30T21:31:23.257Z,18.40
2019-03-30T21:33:51.752Z,18.30
2019-03-30T21:36:20.208Z,18.30
2019-03-30T21:38:48.143Z,18.20
2019-03-30T21:41:16.148Z,18.20
2019-03-30T21:43:44.268Z,18.30
2019-03-30T21:46:12.313Z,20.90
2019-03-30T21:48:40.300Z,18.10
2019-03-30T21:51:08.187Z,15.20
2019-03-30T21:53:36.141Z,19.20
2019-03-30T21:56:04.211Z,18.00
2019-03-30T21:58:32.098Z,18.00
2019-03-30T22:01:00.188Z,18.00
2019-03-30T22:03:28.278Z,17.90
2019-03-30T22:05:56.348Z,19.10
2019-03-30T22:08:24.420Z,17.80
2019-03-30T22:10:52.416Z,17.80
2019-03-30T22:13:21.602Z,17.80
2019-03-30T22:15:49.794Z,17.70
2019-03-30T22:18:17.759Z,17.70
2019-03-30T22:20:45.732Z,17.70
2019-03-30T22:23:13.980Z,17.60
2019-03-30T22:25:41.879Z,17.60
2019-03-30T22:28:09.845Z,17.60
2019-03-30T22:30:37.920Z,17.50
2019-03-30T22:33:05.979Z,17.50
2019-03-30T22:35:33.913Z,19.90
2019-03-30T22:38:01.893Z,17.40
2019-03-30T22:40:29.993Z,17.40
2019-03-30T22:42:57.946Z,17.40
2019-03-30T22:45:26.036Z,19.50
2019-03-30T22:47:54.039Z,17.30
2019-03-30T22:50:21.895Z,17.20
2019-03-30T22:52:49.883Z,18.70
2019-03-30T22:55:17.810Z,17.20
2019-03-30T22:57:45.808Z,17.20
2019-03-30T23:00:49.077Z,13.90
2019-03-30T23:03:17.018Z,17.10
2019-03-30T23:05:44.990Z,17.10
2019-03-30T23:08:12.956Z,17.00
2019-03-30T23:10:40.848Z,17.70
2019-03-30T23:13:11.930Z,16.90
2019-03-30T23:15:39.861Z,16.90
2019-03-30T23:18:07.922Z,16.90
2019-03-30T23:20:35.989Z,16.80
2019-03-30T23:23:03.884Z,16.80
2019-03-30T23:25:32.374Z,16.70
2019-03-30T23:28:00.222Z,16.80
2019-03-30T23:30:30.951Z,16.70
2019-03-30T23:32:58.892Z,16.70
2019-03-30T23:35:26.844Z,16.70
2019-03-30T23:37:55.243Z,16.60
2019-03-30T23:40:23.366Z,16.60
2019-03-30T23:42:51.296Z,16.60
2019-03-30T23:45:19.237Z,16.50
2019-03-30T23:47:48.213Z,16.40
2019-03-30T23:50:16.312Z,16.40
2019-03-30T23:52:44.339Z,16.40
2019-03-30T23:55:12.480Z,16.50
2019-03-30T23:57:40.434Z,16.40
